sensor_id;sensor_type;location;lat;lon;timestamp;temperature;humidity
20422;DHT22;10370;53.102;18.034;2023-08-12T07:46:45;23.20;99.90
20422;DHT22;10370;53.102;18.034;2023-08-12T07:52:08;23.00;99.90
20422;DHT22;10370;53.102;18.034;2023-08-12T07:57:31;22.90;99.90
20422;DHT22;10370;53.102;18.034;2023-08-12T08:02:53;22.90;99.90
20422;DHT22;10370;53.102;18.034;2023-08-12T08:08:16;23.00;99.90
20422;DHT22;10370;53.102;18.034;2023-08-12T08:13:38;22.90;99.90
20422;DHT22;10370;53.102;18.034;2023-08-12T08:19:01;23.00;99.90
20422;DHT22;10370;53.102;18.034;2023-08-12T08:24:24;23.10;99.90
20422;DHT22;10370;53.102;18.034;2023-08-12T08:29:46;23.10;99.90
20422;DHT22;10370;53.102;18.034;2023-08-12T08:35:09;23.10;99.90
20422;DHT22;10370;53.102;18.034;2023-08-12T08:40:32;23.30;99.90
20422;DHT22;10370;53.102;18.034;2023-08-12T08:45:54;23.30;99.90
20422;DHT22;10370;53.102;18.034;2023-08-12T08:51:18;23.50;99.90
20422;DHT22;10370;53.102;18.034;2023-08-12T08:56:42;23.40;99.90
20422;DHT22;10370;53.102;18.034;2023-08-12T09:02:18;23.50;99.90
20422;DHT22;10370;53.102;18.034;2023-08-12T09:07:42;23.30;99.90
20422;DHT22;10370;53.102;18.034;2023-08-12T09:13:06;23.30;99.90
20422;DHT22;10370;53.102;18.034;2023-08-12T09:18:31;23.40;99.90
20422;DHT22;10370;53.102;18.034;2023-08-12T09:23:55;23.70;99.90
20422;DHT22;10370;53.102;18.034;2023-08-12T09:29:17;23.80;99.90
20422;DHT22;10370;53.102;18.034;2023-08-12T09:34:51;23.80;99.90
20422;DHT22;10370;53.102;18.034;2023-08-12T09:40:14;23.90;99.90
20422;DHT22;10370;53.102;18.034;2023-08-12T09:45:37;23.80;99.90
20422;DHT22;10370;53.102;18.034;2023-08-12T09:51:00;23.80;99.90
20422;DHT22;10370;53.102;18.034;2023-08-12T09:56:23;24.00;99.90
20422;DHT22;10370;53.102;18.034;2023-08-12T10:01:46;24.10;99.90
20422;DHT22;10370;53.102;18.034;2023-08-12T10:07:10;24.10;99.90
20422;DHT22;10370;53.102;18.034;2023-08-12T10:12:36;24.30;99.90
20422;DHT22;10370;53.102;18.034;2023-08-12T10:17:59;24.30;99.90
20422;DHT22;10370;53.102;18.034;2023-08-12T10:23:23;24.30;99.90
20422;DHT22;10370;53.102;18.034;2023-08-12T10:28:48;24.40;99.90
20422;DHT22;10370;53.102;18.034;2023-08-12T10:34:24;24.50;99.90
20422;DHT22;10370;53.102;18.034;2023-08-12T10:39:48;24.40;99.90
20422;DHT22;10370;53.102;18.034;2023-08-12T10:45:12;24.50;99.90
20422;DHT22;10370;53.102;18.034;2023-08-12T10:50:34;24.70;99.90
20422;DHT22;10370;53.102;18.034;2023-08-12T10:56:03;24.70;99.90
20422;DHT22;10370;53.102;18.034;2023-08-12T11:01:30;24.90;99.90
20422;DHT22;10370;53.102;18.034;2023-08-12T11:06:55;24.80;99.90
20422;DHT22;10370;53.102;18.034;2023-08-12T11:12:18;24.80;99.90
20422;DHT22;10370;53.102;18.034;2023-08-12T11:17:42;25.00;99.90
20422;DHT22;10370;53.102;18.034;2023-08-12T11:23:08;25.10;99.90
20422;DHT22;10370;53.102;18.034;2023-08-12T11:28:31;25.10;99.90
20422;DHT22;10370;53.102;18.034;2023-08-12T11:33:54;25.30;99.90
20422;DHT22;10370;53.102;18.034;2023-08-12T11:39:17;25.30;99.90
20422;DHT22;10370;53.102;18.034;2023-08-12T11:44:40;25.40;99.90
20422;DHT22;10370;53.102;18.034;2023-08-12T11:50:08;25.50;99.90
20422;DHT22;10370;53.102;18.034;2023-08-12T11:55:30;25.50;99.90
20422;DHT22;10370;53.102;18.034;2023-08-12T12:00:54;25.70;99.90
20422;DHT22;10370;53.102;18.034;2023-08-12T12:06:16;25.70;99.90
20422;DHT22;10370;53.102;18.034;2023-08-12T12:11:41;25.60;99.90
20422;DHT22;10370;53.102;18.034;2023-08-12T12:17:08;25.50;99.90
20422;DHT22;10370;53.102;18.034;2023-08-12T12:22:35;25.70;99.90
20422;DHT22;10370;53.102;18.034;2023-08-12T12:27:57;25.70;99.90
20422;DHT22;10370;53.102;18.034;2023-08-12T12:33:20;26.00;99.90
20422;DHT22;10370;53.102;18.034;2023-08-12T12:38:43;25.80;99.90
20422;DHT22;10370;53.102;18.034;2023-08-12T12:44:06;26.10;99.90
20422;DHT22;10370;53.102;18.034;2023-08-12T12:49:29;26.10;99.90
20422;DHT22;10370;53.102;18.034;2023-08-12T12:54:51;26.10;99.90
20422;DHT22;10370;53.102;18.034;2023-08-12T13:00:14;26.10;99.90
20422;DHT22;10370;53.102;18.034;2023-08-12T13:05:37;26.10;99.90
20422;DHT22;10370;53.102;18.034;2023-08-12T13:11:00;26.30;99.90
20422;DHT22;10370;53.102;18.034;2023-08-12T13:16:23;26.20;99.90
20422;DHT22;10370;53.102;18.034;2023-08-12T13:21:45;26.20;99.90
20422;DHT22;10370;53.102;18.034;2023-08-12T13:27:08;26.30;99.90
20422;DHT22;10370;53.102;18.034;2023-08-12T13:32:31;26.20;99.90
20422;DHT22;10370;53.102;18.034;2023-08-12T13:37:53;26.20;99.90
20422;DHT22;10370;53.102;18.034;2023-08-12T13:43:16;26.60;99.90
20422;DHT22;10370;53.102;18.034;2023-08-12T13:48:38;26.60;99.90
20422;DHT22;10370;53.102;18.034;2023-08-12T13:54:01;26.50;99.90
20422;DHT22;10370;53.102;18.034;2023-08-12T13:59:24;26.50;99.90
20422;DHT22;10370;53.102;18.034;2023-08-12T14:04:46;26.20;99.90
20422;DHT22;10370;53.102;18.034;2023-08-12T14:10:09;26.20;99.90
20422;DHT22;10370;53.102;18.034;2023-08-12T14:15:32;26.40;99.90
20422;DHT22;10370;53.102;18.034;2023-08-12T14:20:55;26.40;99.90
20422;DHT22;10370;53.102;18.034;2023-08-12T14:26:17;26.70;99.90
20422;DHT22;10370;53.102;18.034;2023-08-12T14:31:40;26.70;99.90
20422;DHT22;10370;53.102;18.034;2023-08-12T14:37:03;26.80;99.90
20422;DHT22;10370;53.102;18.034;2023-08-12T14:42:26;26.80;99.90
20422;DHT22;10370;53.102;18.034;2023-08-12T14:47:48;26.80;99.90
20422;DHT22;10370;53.102;18.034;2023-08-12T14:53:11;26.80;99.90
20422;DHT22;10370;53.102;18.034;2023-08-12T14:58:33;26.80;99.90
20422;DHT22;10370;53.102;18.034;2023-08-12T15:03:56;26.50;99.90
20422;DHT22;10370;53.102;18.034;2023-08-12T15:09:19;26.40;99.90
20422;DHT22;10370;53.102;18.034;2023-08-12T15:14:42;26.20;99.90
20422;DHT22;10370;53.102;18.034;2023-08-12T15:20:05;26.00;99.90
20422;DHT22;10370;53.102;18.034;2023-08-12T15:25:28;25.80;99.90
20422;DHT22;10370;53.102;18.034;2023-08-12T15:30:51;25.80;99.90
20422;DHT22;10370;53.102;18.034;2023-08-12T15:36:16;25.80;99.90
20422;DHT22;10370;53.102;18.034;2023-08-12T15:41:42;25.80;99.90
20422;DHT22;10370;53.102;18.034;2023-08-12T15:47:07;25.70;99.90
20422;DHT22;10370;53.102;18.034;2023-08-12T15:52:30;25.60;99.90
20422;DHT22;10370;53.102;18.034;2023-08-12T15:57:55;25.50;99.90
20422;DHT22;10370;53.102;18.034;2023-08-12T16:03:18;25.40;99.90
20422;DHT22;10370;53.102;18.034;2023-08-12T16:08:41;25.40;99.90
20422;DHT22;10370;53.102;18.034;2023-08-12T16:14:06;25.40;99.90
20422;DHT22;10370;53.102;18.034;2023-08-12T16:19:29;25.40;99.90
20422;DHT22;10370;53.102;18.034;2023-08-12T16:24:52;25.50;99.90
20422;DHT22;10370;53.102;18.034;2023-08-12T16:30:14;25.40;99.90
20422;DHT22;10370;53.102;18.034;2023-08-12T16:35:37;25.40;99.90
20422;DHT22;10370;53.102;18.034;2023-08-12T16:41:00;25.30;99.90
20422;DHT22;10370;53.102;18.034;2023-08-12T16:46:22;25.20;99.90
20422;DHT22;10370;53.102;18.034;2023-08-12T16:51:46;25.20;99.90
20422;DHT22;10370;53.102;18.034;2023-08-12T16:57:08;25.30;99.90
20422;DHT22;10370;53.102;18.034;2023-08-12T17:02:31;25.20;99.90
20422;DHT22;10370;53.102;18.034;2023-08-12T17:07:54;25.30;99.90
20422;DHT22;10370;53.102;18.034;2023-08-12T17:13:17;25.20;99.90
20422;DHT22;10370;53.102;18.034;2023-08-12T17:18:40;25.20;99.90
20422;DHT22;10370;53.102;18.034;2023-08-12T17:24:03;25.20;99.90
20422;DHT22;10370;53.102;18.034;2023-08-12T17:29:26;25.10;99.90
20422;DHT22;10370;53.102;18.034;2023-08-12T17:34:49;25.10;99.90
20422;DHT22;10370;53.102;18.034;2023-08-12T17:40:12;24.90;99.90
20422;DHT22;10370;53.102;18.034;2023-08-12T17:45:36;24.70;99.90
20422;DHT22;10370;53.102;18.034;2023-08-12T17:51:00;24.50;99.90
20422;DHT22;10370;53.102;18.034;2023-08-12T17:56:22;24.40;99.90
20422;DHT22;10370;53.102;18.034;2023-08-12T18:01:45;24.30;99.90
20422;DHT22;10370;53.102;18.034;2023-08-12T18:07:07;24.20;99.90
20422;DHT22;10370;53.102;18.034;2023-08-12T18:12:30;24.10;99.90
20422;DHT22;10370;53.102;18.034;2023-08-12T18:17:53;24.10;99.90
20422;DHT22;10370;53.102;18.034;2023-08-12T18:23:16;24.00;99.90
20422;DHT22;10370;53.102;18.034;2023-08-12T18:28:48;23.90;99.90
20422;DHT22;10370;53.102;18.034;2023-08-12T18:34:11;23.90;99.90
20422;DHT22;10370;53.102;18.034;2023-08-12T18:39:34;23.80;99.90
20422;DHT22;10370;53.102;18.034;2023-08-12T18:44:56;23.70;99.90
20422;DHT22;10370;53.102;18.034;2023-08-12T18:50:19;23.70;99.90
20422;DHT22;10370;53.102;18.034;2023-08-12T18:55:42;23.70;99.90
20422;DHT22;10370;53.102;18.034;2023-08-12T19:01:04;23.60;99.90
20422;DHT22;10370;53.102;18.034;2023-08-12T19:06:27;23.50;99.90
20422;DHT22;10370;53.102;18.034;2023-08-12T19:11:50;23.50;99.90
20422;DHT22;10370;53.102;18.034;2023-08-12T19:17:13;23.40;99.90
20422;DHT22;10370;53.102;18.034;2023-08-12T19:22:36;23.40;99.90
20422;DHT22;10370;53.102;18.034;2023-08-12T19:27:58;23.30;99.90
20422;DHT22;10370;53.102;18.034;2023-08-12T19:33:21;23.30;99.90
20422;DHT22;10370;53.102;18.034;2023-08-12T19:38:44;23.20;99.90
20422;DHT22;10370;53.102;18.034;2023-08-12T19:44:06;23.10;99.90
20422;DHT22;10370;53.102;18.034;2023-08-12T19:49:29;23.10;99.90
20422;DHT22;10370;53.102;18.034;2023-08-12T19:54:52;23.00;99.90
20422;DHT22;10370;53.102;18.034;2023-08-12T20:00:14;23.00;99.90
20422;DHT22;10370;53.102;18.034;2023-08-12T20:05:37;22.90;99.90
20422;DHT22;10370;53.102;18.034;2023-08-12T20:10:59;22.80;99.90
20422;DHT22;10370;53.102;18.034;2023-08-12T20:16:24;22.80;99.90
20422;DHT22;10370;53.102;18.034;2023-08-12T20:21:48;22.70;99.90
20422;DHT22;10370;53.102;18.034;2023-08-12T20:27:11;22.70;99.90
20422;DHT22;10370;53.102;18.034;2023-08-12T20:32:36;22.80;99.90
20422;DHT22;10370;53.102;18.034;2023-08-12T20:37:58;22.80;99.90
20422;DHT22;10370;53.102;18.034;2023-08-12T20:43:21;22.80;99.90
20422;DHT22;10370;53.102;18.034;2023-08-12T20:48:44;22.80;99.90
20422;DHT22;10370;53.102;18.034;2023-08-12T20:54:06;22.80;99.90
20422;DHT22;10370;53.102;18.034;2023-08-12T20:59:29;22.70;99.90
20422;DHT22;10370;53.102;18.034;2023-08-12T21:04:51;22.60;99.90
20422;DHT22;10370;53.102;18.034;2023-08-12T21:10:14;22.60;99.90
20422;DHT22;10370;53.102;18.034;2023-08-12T21:15:37;22.50;99.90
20422;DHT22;10370;53.102;18.034;2023-08-12T21:21:00;22.50;99.90
20422;DHT22;10370;53.102;18.034;2023-08-12T21:26:22;22.40;99.90
20422;DHT22;10370;53.102;18.034;2023-08-12T21:31:45;22.30;99.90
20422;DHT22;10370;53.102;18.034;2023-08-12T21:37:07;22.20;99.90
20422;DHT22;10370;53.102;18.034;2023-08-12T21:42:30;22.20;99.90
20422;DHT22;10370;53.102;18.034;2023-08-12T21:47:53;22.10;99.90
20422;DHT22;10370;53.102;18.034;2023-08-12T21:53:15;22.00;99.90
20422;DHT22;10370;53.102;18.034;2023-08-12T21:58:38;22.00;99.90
20422;DHT22;10370;53.102;18.034;2023-08-12T22:04:00;21.90;99.90
20422;DHT22;10370;53.102;18.034;2023-08-12T22:09:23;21.80;99.90
20422;DHT22;10370;53.102;18.034;2023-08-12T22:14:47;21.80;99.90
20422;DHT22;10370;53.102;18.034;2023-08-12T22:20:10;21.70;99.90
20422;DHT22;10370;53.102;18.034;2023-08-12T22:25:34;21.70;99.90
20422;DHT22;10370;53.102;18.034;2023-08-12T22:30:57;21.60;99.90
20422;DHT22;10370;53.102;18.034;2023-08-12T22:36:19;21.70;99.90
20422;DHT22;10370;53.102;18.034;2023-08-12T22:41:42;21.80;99.90
20422;DHT22;10370;53.102;18.034;2023-08-12T22:47:05;21.90;99.90
20422;DHT22;10370;53.102;18.034;2023-08-12T22:52:27;21.80;99.90
20422;DHT22;10370;53.102;18.034;2023-08-12T22:57:51;21.70;99.90
20422;DHT22;10370;53.102;18.034;2023-08-12T23:03:13;21.60;99.90
20422;DHT22;10370;53.102;18.034;2023-08-12T23:08:36;21.50;99.90
20422;DHT22;10370;53.102;18.034;2023-08-12T23:13:59;21.40;99.90
20422;DHT22;10370;53.102;18.034;2023-08-12T23:19:22;21.30;99.90
20422;DHT22;10370;53.102;18.034;2023-08-12T23:24:44;21.30;99.90
20422;DHT22;10370;53.102;18.034;2023-08-12T23:30:07;21.20;99.90
20422;DHT22;10370;53.102;18.034;2023-08-12T23:35:30;21.10;99.90
20422;DHT22;10370;53.102;18.034;2023-08-12T23:40:56;21.10;99.90
20422;DHT22;10370;53.102;18.034;2023-08-12T23:46:18;20.90;99.90
20422;DHT22;10370;53.102;18.034;2023-08-12T23:51:41;20.90;99.90
20422;DHT22;10370;53.102;18.034;2023-08-12T23:57:04;20.80;99.90
